Time;durP1;ratioP1;P1;durP2;ratioP2;P2;SDS_P1;SDS_P2;PMS_P1;PMS_P2;Temp;Humidity;BMP_temperature;BMP_pressure;BME280_temperature;BME280_humidity;BME280_pressure;Samples;Min_cycle;Max_cycle;Signal;HPM_P1;HPM_P2
2022/12/31 00:02:02;;;;;;;;;;;;;;;11.44;100.00;100133.81;5053046;28;19909;-74
2022/12/31 00:04:27;;;;;;;;;;;;;;;11.45;100.00;100141.75;5041437;28;19917;-75
2022/12/31 00:06:53;;;;;;;;;;;;;;;11.48;100.00;100137.91;5037271;28;19999;-74
2022/12/31 00:09:18;;;;;;;;;;;;;;;11.48;100.00;100138.78;5042302;28;19966;-74
2022/12/31 00:11:43;;;;;;;;;;;;;;;11.48;100.00;100144.16;5050887;28;19925;-75
2022/12/31 00:14:08;;;;;;;;;;;;;;;11.49;100.00;100142.31;5036419;28;19936;-75
2022/12/31 00:16:35;;;;;;;;;;;;;;;11.49;100.00;100139.63;5038474;28;19913;-74
2022/12/31 00:19:01;;;;;;;;;;;;;;;11.49;100.00;100135.13;5055544;28;20028;-75
2022/12/31 00:21:27;;;;;;;;;;;;;;;11.50;100.00;100133.25;5046613;28;20006;-75
2022/12/31 00:23:52;;;;;;;;;;;;;;;11.49;100.00;100140.50;5055052;28;19909;-75
2022/12/31 00:26:20;;;;;;;;;;;;;;;11.51;100.00;100137.66;5048399;28;19919;-75
2022/12/31 00:28:45;;;;;;;;;;;;;;;11.51;100.00;100148.44;5054508;28;19916;-75
2022/12/31 00:31:12;;;;;;;;;;;;;;;11.51;100.00;100122.38;5054197;28;20383;-75
2022/12/31 00:33:38;;;;;;;;;;;;;;;11.51;100.00;100121.53;5055898;28;20421;-75
2022/12/31 00:36:08;;;;;;;;;;;;;;;11.50;100.00;100123.34;5055595;28;19908;-75
2022/12/31 00:38:34;;;;;;;;;;;;;;;11.50;100.00;100117.13;5048237;28;19919;-75
2022/12/31 00:40:59;;;;;;;;;;;;;;;11.49;100.00;100108.22;5052848;28;19913;-75
2022/12/31 00:43:24;;;;;;;;;;;;;;;11.48;100.00;100119.94;5040792;28;19924;-75
2022/12/31 00:45:49;;;;;;;;;;;;;;;11.50;100.00;100120.66;5034360;28;19920;-75
2022/12/31 00:48:14;;;;;;;;;;;;;;;11.50;100.00;100119.81;5035746;28;19909;-75
2022/12/31 00:50:40;;;;;;;;;;;;;;;11.50;100.00;100115.28;5046090;28;19966;-75
2022/12/31 00:53:05;;;;;;;;;;;;;;;11.50;100.00;100115.28;5055603;28;19966;-75
2022/12/31 00:55:30;;;;;;;;;;;;;;;11.50;100.00;100120.66;5053105;28;19913;-75
2022/12/31 00:57:55;;;;;;;;;;;;;;;11.50;100.00;100114.44;5053810;28;19921;-75
2022/12/31 01:00:20;;;;;;;;;;;;;;;11.49;100.00;100102.81;5037870;28;19913;-75
2022/12/31 01:02:45;;;;;;;;;;;;;;;11.48;100.00;100106.50;5055254;28;20376;-75
2022/12/31 01:05:11;;;;;;;;;;;;;;;11.48;100.00;100105.63;5054433;28;19912;-75
2022/12/31 01:07:36;;;;;;;;;;;;;;;11.47;100.00;100109.31;5049387;28;20006;-75
2022/12/31 01:10:02;;;;;;;;;;;;;;;11.47;100.00;100110.16;5049460;28;19913;-75
2022/12/31 01:12:27;;;;;;;;;;;;;;;11.46;100.00;100097.69;5041294;28;19953;-75
2022/12/31 01:14:52;;;;;;;;;;;;;;;11.46;100.00;100086.94;5035163;28;19909;-75
2022/12/31 01:17:18;;;;;;;;;;;;;;;11.47;100.00;100088.63;5036603;28;19999;-75
2022/12/31 01:19:43;;;;;;;;;;;;;;;11.46;100.00;100092.31;5044628;28;20287;-75
2022/12/31 01:22:08;;;;;;;;;;;;;;;11.44;100.00;100082.69;5039524;28;20365;-75
2022/12/31 01:24:33;;;;;;;;;;;;;;;11.43;100.00;100097.97;5048615;28;19912;-75
2022/12/31 01:26:58;;;;;;;;;;;;;;;11.42;100.00;100098.97;5053618;28;20269;-74
2022/12/31 01:29:24;;;;;;;;;;;;;;;11.41;100.00;100104.50;5046957;28;19913;-75
2022/12/31 01:31:49;;;;;;;;;;;;;;;11.39;100.00;100112.72;5048058;28;19916;-75
2022/12/31 01:34:14;;;;;;;;;;;;;;;11.37;100.00;100106.59;5039672;28;20300;-75
2022/12/31 01:36:39;;;;;;;;;;;;;;;11.37;100.00;100112.81;5034999;28;19913;-75
2022/12/31 01:39:05;;;;;;;;;;;;;;;11.36;100.00;100107.56;5034506;28;19963;-75
2022/12/31 01:41:35;;;;;;;;;;;;;;;11.34;100.00;100109.56;5040929;28;19940;-76
2022/12/31 01:44:10;;;;;;;;;;;;;;;11.33;100.00;100111.41;5044934;28;20025;-75
2022/12/31 01:46:37;;;;;;;;;;;;;;;11.33;100.00;100123.97;5037874;28;19917;-75
2022/12/31 01:49:07;;;;;;;;;;;;;;;11.34;100.00;100131.06;5035073;28;19920;-75
2022/12/31 01:51:33;;;;;;;;;;;;;;;11.32;100.00;100154.59;5051410;28;19916;-75
2022/12/31 01:54:01;;;;;;;;;;;;;;;11.32;100.00;100178.78;5033643;28;19917;-75
2022/12/31 01:56:26;;;;;;;;;;;;;;;11.32;100.00;100173.41;5037390;28;19923;-75
2022/12/31 01:58:53;;;;;;;;;;;;;;;11.32;100.00;100166.19;5031668;28;19913;-75
2022/12/31 02:01:29;;;;;;;;;;;;;;;11.32;100.00;100141.13;5051175;28;20296;-75
2022/12/31 02:03:55;;;;;;;;;;;;;;;11.31;100.00;100118.75;5044330;28;20414;-75
2022/12/31 02:06:35;;;;;;;;;;;;;;;11.31;100.00;100126.81;5035790;28;19913;-75
2022/12/31 02:09:00;;;;;;;;;;;;;;;11.30;100.00;100143.97;5034278;28;19951;-75
2022/12/31 02:11:27;;;;;;;;;;;;;;;11.29;100.00;100136.88;5039457;28;19956;-75
2022/12/31 02:13:53;;;;;;;;;;;;;;;11.30;100.00;100145.78;5035875;28;20369;-75
2022/12/31 02:16:35;;;;;;;;;;;;;;;11.29;100.00;100146.75;5037509;28;19908;-75
2022/12/31 02:19:03;;;;;;;;;;;;;;;11.29;100.00;100157.50;5033523;28;20456;-75
2022/12/31 02:22:03;;;;;;;;;;;;;;;11.29;100.00;100166.47;5042153;28;20377;-75
2022/12/31 02:24:47;;;;;;;;;;;;;;;11.30;100.00;100168.19;4992062;28;19949;-75
2022/12/31 02:27:31;;;;;;;;;;;;;;;11.33;100.00;100177.78;4993884;28;19917;-75
2022/12/31 02:30:03;;;;;;;;;;;;;;;11.33;100.00;100175.09;4993096;28;20405;-75
2022/12/31 02:32:31;;;;;;;;;;;;;;;11.33;100.00;100184.03;4994396;28;19921;-75
2022/12/31 02:34:59;;;;;;;;;;;;;;;11.33;100.00;100173.28;4993225;28;20435;-75
2022/12/31 02:37:27;;;;;;;;;;;;;;;11.32;100.00;100179.63;4984990;28;19933;-75
2022/12/31 02:39:53;;;;;;;;;;;;;;;11.33;100.00;100188.56;5003977;28;19914;-75
2022/12/31 02:42:18;;;;;;;;;;;;;;;11.33;100.00;100197.50;4998291;28;19913;-75
2022/12/31 02:44:43;;;;;;;;;;;;;;;11.34;100.00;100195.66;4991721;28;19932;-75
2022/12/31 02:47:08;;;;;;;;;;;;;;;11.33;100.00;100204.69;5001977;28;20051;-75
2022/12/31 02:49:52;;;;;;;;;;;;;;;11.33;100.00;100191.25;5011021;28;19953;-76
2022/12/31 02:52:17;;;;;;;;;;;;;;;11.33;100.00;100181.34;4996595;28;20000;-75
2022/12/31 02:54:42;;;;;;;;;;;;;;;11.32;100.00;100179.63;4999449;28;20016;-76
2022/12/31 02:57:14;;;;;;;;;;;;;;;11.31;100.00;100175.22;5005921;28;19920;-75
2022/12/31 03:02:42;;;;;;;;;;;;;;;11.30;100.00;100172.69;5036143;28;20280;-76
2022/12/31 03:05:08;;;;;;;;;;;;;;;11.31;100.00;100169.00;5042769;28;19978;-75
2022/12/31 03:07:33;;;;;;;;;;;;;;;11.31;100.00;100166.31;5036258;28;19968;-75
2022/12/31 03:09:59;;;;;;;;;;;;;;;11.30;100.00;100167.31;5034886;28;19965;-74
2022/12/31 03:12:45;;;;;;;;;;;;;;;11.28;100.00;100163.91;5049562;28;19917;-75
2022/12/31 03:15:19;;;;;;;;;;;;;;;11.26;100.00;100155.97;5040460;28;20262;-75
2022/12/31 03:17:46;;;;;;;;;;;;;;;11.26;100.00;100155.97;5044274;28;19951;-75
2022/12/31 03:22:55;;;;;;;;;;;;;;;11.25;100.00;100145.34;5039353;28;19939;-76
2022/12/31 03:25:33;;;;;;;;;;;;;;;11.24;100.00;100147.16;5047029;28;19916;-75
2022/12/31 03:27:58;;;;;;;;;;;;;;;11.23;100.00;100136.53;5036161;28;19959;-75
2022/12/31 03:30:24;;;;;;;;;;;;;;;11.22;100.00;100141.06;5045586;28;19913;-75
2022/12/31 03:32:50;;;;;;;;;;;;;;;11.22;100.00;100148.31;5048312;28;19920;-75
2022/12/31 03:35:16;;;;;;;;;;;;;;;11.21;100.00;100141.22;5051001;28;19912;-75
2022/12/31 03:37:42;;;;;;;;;;;;;;;11.20;100.00;100124.25;5046423;28;19956;-75
2022/12/31 03:40:09;;;;;;;;;;;;;;;11.21;100.00;100125.06;5032451;28;19962;-75
2022/12/31 03:42:34;;;;;;;;;;;;;;;11.19;100.00;100114.47;5032324;28;19952;-75
2022/12/31 03:44:59;;;;;;;;;;;;;;;11.18;100.00;100121.66;5030617;28;19955;-75
2022/12/31 03:47:24;;;;;;;;;;;;;;;11.19;100.00;100119.84;5035520;28;20055;-76
2022/12/31 03:49:50;;;;;;;;;;;;;;;11.18;100.00;100110.91;5040877;28;20449;-75
2022/12/31 03:52:15;;;;;;;;;;;;;;;11.18;100.00;100108.22;5052282;28;20372;-75
2022/12/31 03:54:40;;;;;;;;;;;;;;;11.19;100.00;100118.00;5051260;28;19908;-76
2022/12/31 03:57:05;;;;;;;;;;;;;;;11.18;100.00;100116.28;5047629;28;20372;-75
2022/12/31 03:59:30;;;;;;;;;;;;;;;11.18;100.00;100110.06;5030759;28;20184;-75
2022/12/31 04:01:56;;;;;;;;;;;;;;;11.18;100.00;100104.69;5047461;28;19912;-74
2022/12/31 04:04:21;;;;;;;;;;;;;;;11.17;100.00;100106.53;5035056;28;19917;-75
2022/12/31 04:06:46;;;;;;;;;;;;;;;11.18;100.00;100115.44;5036923;28;21041;-76
2022/12/31 04:09:11;;;;;;;;;;;;;;;11.19;100.00;100106.38;5040460;28;19919;-75
2022/12/31 04:11:36;;;;;;;;;;;;;;;11.20;100.00;100102.72;5040947;28;20291;-75
2022/12/31 04:14:02;;;;;;;;;;;;;;;11.22;100.00;100107.97;5038034;28;19966;-75
2022/12/31 04:16:27;;;;;;;;;;;;;;;11.23;100.00;100104.25;5046687;28;19986;-75
2022/12/31 04:18:52;;;;;;;;;;;;;;;11.25;100.00;100108.53;5044163;28;20360;-75
2022/12/31 04:21:17;;;;;;;;;;;;;;;11.28;100.00;100099.34;5037079;28;19920;-75
2022/12/31 04:23:42;;;;;;;;;;;;;;;11.33;100.00;100091.69;5046408;28;19920;-75
2022/12/31 04:26:08;;;;;;;;;;;;;;;11.39;100.00;100098.38;5034358;28;19913;-75
2022/12/31 04:28:33;;;;;;;;;;;;;;;11.42;100.00;100085.53;5043513;28;19920;-75
2022/12/31 04:30:58;;;;;;;;;;;;;;;11.48;100.00;100087.66;5043394;28;19916;-75
2022/12/31 04:33:23;;;;;;;;;;;;;;;11.58;100.00;100073.38;5041632;28;19939;-75
2022/12/31 04:35:48;;;;;;;;;;;;;;;11.61;100.00;100068.59;5042093;28;19920;-75
2022/12/31 04:38:13;;;;;;;;;;;;;;;11.67;100.00;100048.31;5042744;28;19909;-75
2022/12/31 04:41:15;;;;;;;;;;;;;;;11.76;100.00;100062.75;5032560;28;19956;-75
2022/12/31 04:43:24;;;;;;;;;;;;;;;11.82;100.00;100091.84;5031986;28;19921;-75
2022/12/31 04:45:49;;;;;;;;;;;;;;;11.87;100.00;100097.66;5031858;28;20319;-75
2022/12/31 04:48:14;;;;;;;;;;;;;;;11.94;100.00;100095.28;5031803;28;19909;-75
2022/12/31 04:50:39;;;;;;;;;;;;;;;11.99;100.00;100107.34;5030124;28;20321;-75
2022/12/31 04:53:04;;;;;;;;;;;;;;;12.06;100.00;100095.03;5053350;28;20538;-75
2022/12/31 04:55:30;;;;;;;;;;;;;;;12.12;100.00;100092.75;5055513;28;19962;-75
2022/12/31 04:57:55;;;;;;;;;;;;;;;12.16;100.00;100111.19;5040826;28;20395;-75
2022/12/31 05:00:20;;;;;;;;;;;;;;;12.21;100.00;100102.66;5036765;28;19913;-75
2022/12/31 05:02:45;;;;;;;;;;;;;;;12.27;100.00;100117.41;5045734;28;20346;-75
2022/12/31 05:05:10;;;;;;;;;;;;;;;12.31;100.00;100129.63;5035205;28;19917;-75
2022/12/31 05:07:35;;;;;;;;;;;;;;;12.36;100.00;100127.38;5047177;28;19996;-75
2022/12/31 05:10:01;;;;;;;;;;;;;;;12.38;100.00;100134.28;5050587;28;19981;-75
2022/12/31 05:12:26;;;;;;;;;;;;;;;12.40;100.00;100124.25;5059242;28;19965;-75
2022/12/31 05:14:51;;;;;;;;;;;;;;;12.44;100.00;100114.00;5050180;28;19919;-75
2022/12/31 05:17:16;;;;;;;;;;;;;;;12.48;100.00;100128.06;5051367;28;20436;-75
2022/12/31 05:19:42;;;;;;;;;;;;;;;12.51;100.00;100120.53;5051577;28;19916;-75
2022/12/31 05:24:51;;;;;;;;;;;;;;;12.59;100.00;100126.06;5042981;28;19924;-75
2022/12/31 05:27:16;;;;;;;;;;;;;;;12.64;100.00;100141.81;5034486;28;20365;-75
2022/12/31 05:29:41;;;;;;;;;;;;;;;12.67;100.00;100141.53;5042197;28;20007;-75
2022/12/31 05:32:06;;;;;;;;;;;;;;;12.70;100.00;100148.47;5053644;28;19921;-75
2022/12/31 05:34:31;;;;;;;;;;;;;;;12.72;100.00;100165.34;5038124;28;20362;-75
2022/12/31 05:36:57;;;;;;;;;;;;;;;12.73;100.00;100154.41;5052816;28;19955;-75
2022/12/31 05:39:22;;;;;;;;;;;;;;;12.72;100.00;100166.22;5035627;28;20352;-76
2022/12/31 05:41:47;;;;;;;;;;;;;;;12.71;100.00;100166.38;5039366;28;19916;-75
2022/12/31 05:44:12;;;;;;;;;;;;;;;12.71;100.00;100150.19;5048181;28;19920;-76
2022/12/31 05:46:39;;;;;;;;;;;;;;;12.69;100.00;100155.69;5052724;28;20016;-75
2022/12/31 05:49:04;;;;;;;;;;;;;;;12.70;100.00;100145.78;5052136;28;19999;-75
2022/12/31 05:51:29;;;;;;;;;;;;;;;12.72;100.00;100147.34;5051838;28;19913;-76
2022/12/31 05:53:54;;;;;;;;;;;;;;;12.74;100.00;100141.81;5039534;28;19913;-75
2022/12/31 05:56:19;;;;;;;;;;;;;;;12.76;100.00;100147.91;5044858;28;19963;-75
2022/12/31 05:58:45;;;;;;;;;;;;;;;12.80;100.00;100146.63;5039716;28;19917;-75
2022/12/31 06:01:10;;;;;;;;;;;;;;;12.83;100.00;100140.94;5039631;28;19920;-75
2022/12/31 06:03:35;;;;;;;;;;;;;;;12.86;100.00;100151.44;5050190;28;19944;-75
2022/12/31 06:06:00;;;;;;;;;;;;;;;12.91;100.00;100165.34;5043883;28;19912;-75
2022/12/31 06:08:25;;;;;;;;;;;;;;;12.96;100.00;100148.72;5037812;28;19962;-75
2022/12/31 06:10:50;;;;;;;;;;;;;;;13.01;100.00;100153.69;5033273;28;19967;-75
2022/12/31 06:13:16;;;;;;;;;;;;;;;13.05;100.00;100160.50;5044921;28;20291;-75
2022/12/31 06:15:41;;;;;;;;;;;;;;;13.11;100.00;100171.53;5047124;28;19913;-76
2022/12/31 06:18:06;;;;;;;;;;;;;;;13.21;100.00;100184.16;5051724;28;19913;-75
2022/12/31 06:20:31;;;;;;;;;;;;;;;13.21;100.00;100171.50;5042421;28;20447;-75
2022/12/31 06:22:56;;;;;;;;;;;;;;;13.23;100.00;100191.09;5040348;28;19924;-75
2022/12/31 06:25:22;;;;;;;;;;;;;;;13.25;100.00;100175.63;5032866;28;19960;-75
2022/12/31 06:27:47;;;;;;;;;;;;;;;13.25;100.00;100183.72;5051057;28;20287;-75
2022/12/31 06:30:12;;;;;;;;;;;;;;;13.31;100.00;100203.88;5052347;28;19919;-74
2022/12/31 06:32:39;;;;;;;;;;;;;;;13.37;100.00;100197.09;5045652;28;19924;-74
2022/12/31 06:35:04;;;;;;;;;;;;;;;13.40;100.00;100197.63;5047250;28;19923;-75
2022/12/31 06:37:30;;;;;;;;;;;;;;;13.42;100.00;100194.78;5047792;28;20380;-75
2022/12/31 06:39:55;;;;;;;;;;;;;;;13.42;100.00;100187.53;5041288;28;19921;-75
2022/12/31 06:42:20;;;;;;;;;;;;;;;13.48;100.00;100196.03;5051660;28;20004;-74
2022/12/31 06:44:45;;;;;;;;;;;;;;;13.53;100.00;100208.09;5052004;28;20292;-75
2022/12/31 06:47:10;;;;;;;;;;;;;;;13.57;100.00;100192.44;5051910;28;19909;-74
2022/12/31 06:49:35;;;;;;;;;;;;;;;13.60;100.00;100189.44;5049984;28;19908;-75
2022/12/31 06:52:01;;;;;;;;;;;;;;;13.61;100.00;100189.28;5033546;28;20023;-75
2022/12/31 06:54:26;;;;;;;;;;;;;;;13.61;100.00;100189.28;5033365;28;19916;-75
2022/12/31 06:56:51;;;;;;;;;;;;;;;13.66;100.00;100199.69;5042051;28;20407;-75
2022/12/31 06:59:22;;;;;;;;;;;;;;;13.66;100.00;100199.69;5053116;28;19916;-74
2022/12/31 07:01:50;;;;;;;;;;;;;;;13.67;100.00;100198.66;5050818;28;19935;-75
2022/12/31 07:04:27;;;;;;;;;;;;;;;13.69;100.00;100196.69;5051290;28;19912;-75
2022/12/31 07:07:11;;;;;;;;;;;;;;;13.69;100.00;100196.69;5051398;28;19962;-75
2022/12/31 07:09:39;;;;;;;;;;;;;;;13.72;100.00;100195.50;5041746;28;19913;-75
2022/12/31 07:12:30;;;;;;;;;;;;;;;13.76;100.00;100196.91;5034722;28;19956;-75
2022/12/31 07:15:10;;;;;;;;;;;;;;;13.77;100.00;100204.84;5035777;28;20427;-75
2022/12/31 07:17:44;;;;;;;;;;;;;;;13.77;100.00;100210.25;5045211;28;20380;-75
2022/12/31 07:20:11;;;;;;;;;;;;;;;13.79;100.00;100210.97;5042067;28;19938;-76
2022/12/31 07:22:37;;;;;;;;;;;;;;;13.76;100.00;100208.59;5040947;28;19920;-75
2022/12/31 07:25:02;;;;;;;;;;;;;;;13.80;100.00;100218.06;5048521;28;19912;-75
2022/12/31 07:27:46;;;;;;;;;;;;;;;13.84;100.00;100201.59;5036739;28;19920;-75
2022/12/31 07:30:16;;;;;;;;;;;;;;;13.84;100.00;100209.69;5044075;28;19944;-76
2022/12/31 07:33:04;;;;;;;;;;;;;;;13.82;100.00;100215.22;5043053;28;19916;-73
2022/12/31 07:35:33;;;;;;;;;;;;;;;13.79;100.00;100223.63;5038722;28;19913;-75
2022/12/31 07:38:11;;;;;;;;;;;;;;;13.80;100.00;100219.94;5034892;28;21086;-76
2022/12/31 07:40:55;;;;;;;;;;;;;;;13.85;100.00;100211.38;5040648;28;19978;-76
2022/12/31 07:43:38;;;;;;;;;;;;;;;13.79;100.00;100207.41;5033014;28;19924;-74
2022/12/31 07:46:21;;;;;;;;;;;;;;;13.80;100.00;100225.31;5036700;28;19921;-74
2022/12/31 07:48:46;;;;;;;;;;;;;;;13.78;100.00;100227.34;5047669;28;19913;-75
2022/12/31 07:51:11;;;;;;;;;;;;;;;13.75;100.00;100222.25;5040524;28;20066;-75
2022/12/31 07:53:37;;;;;;;;;;;;;;;13.73;100.00;100216.13;5049431;28;20002;-75
2022/12/31 07:56:03;;;;;;;;;;;;;;;13.69;100.00;100217.41;5033774;28;20364;-75
2022/12/31 07:58:28;;;;;;;;;;;;;;;13.62;100.00;100215.31;5031507;28;19968;-74
2022/12/31 08:00:55;;;;;;;;;;;;;;;13.60;100.00;100213.75;5058474;28;19952;-75
2022/12/31 08:03:31;;;;;;;;;;;;;;;13.58;100.00;100226.56;5036988;28;19909;-75
2022/12/31 08:06:06;;;;;;;;;;;;;;;13.57;100.00;100233.81;5042796;28;19985;-76
2022/12/31 08:08:43;;;;;;;;;;;;;;;13.57;100.00;100241.03;5037793;28;19913;-76
2022/12/31 08:11:08;;;;;;;;;;;;;;;13.55;100.00;100270.88;5035145;28;20262;-75
2022/12/31 08:13:34;;;;;;;;;;;;;;;13.54;100.00;100271.88;5046421;28;19924;-76
2022/12/31 08:16:01;;;;;;;;;;;;;;;13.52;100.00;100255.00;5041927;28;20355;-76
2022/12/31 08:18:26;;;;;;;;;;;;;;;13.48;100.00;100271.63;5051297;28;20372;-76
2022/12/31 08:21:00;;;;;;;;;;;;;;;13.44;100.00;100285.41;5051561;28;19970;-76
2022/12/31 08:23:41;;;;;;;;;;;;;;;13.42;100.00;100283.84;5050465;28;19924;-76
2022/12/31 08:26:18;;;;;;;;;;;;;;;13.42;100.00;100298.19;5050041;28;19916;-75
2022/12/31 08:28:46;;;;;;;;;;;;;;;13.41;100.00;100314.53;5040832;28;20368;-76
2022/12/31 08:31:16;;;;;;;;;;;;;;;13.45;100.00;100321.34;5050822;28;19919;-76
2022/12/31 08:33:53;;;;;;;;;;;;;;;13.44;100.00;100311.53;5053752;28;19917;-75
2022/12/31 08:36:21;;;;;;;;;;;;;;;13.45;100.00;100326.75;5064185;28;20330;-75
2022/12/31 08:38:53;;;;;;;;;;;;;;;13.44;100.00;100333.13;5036699;28;20411;-76
2022/12/31 08:41:37;;;;;;;;;;;;;;;13.46;100.00;100342.81;5037956;28;19921;-77
2022/12/31 08:44:05;;;;;;;;;;;;;;;13.45;100.00;100349.19;5037040;28;19921;-74
2022/12/31 08:46:33;;;;;;;;;;;;;;;13.48;100.00;100342.66;5035620;28;19917;-74
2022/12/31 08:48:58;;;;;;;;;;;;;;;13.48;100.00;100364.25;5052073;28;19916;-76
2022/12/31 08:51:24;;;;;;;;;;;;;;;13.48;100.00;100366.94;5035178;28;19909;-76
2022/12/31 08:53:50;;;;;;;;;;;;;;;13.49;100.00;100357.03;5035500;28;20372;-76
2022/12/31 08:56:25;;;;;;;;;;;;;;;13.49;100.00;100368.66;5035876;28;20002;-75
2022/12/31 08:59:07;;;;;;;;;;;;;;;13.53;100.00;100380.88;5034407;28;19913;-76
2022/12/31 09:01:55;;;;;;;;;;;;;;;13.54;100.00;100382.56;5039095;28;19912;-76
2022/12/31 09:04:20;;;;;;;;;;;;;;;13.55;100.00;100388.84;5035067;28;19909;-76
2022/12/31 09:06:54;;;;;;;;;;;;;;;13.56;100.00;100386.00;5035054;28;19920;-75
2022/12/31 09:09:47;;;;;;;;;;;;;;;13.55;100.00;100405.88;5035345;28;19921;-76
2022/12/31 09:12:22;;;;;;;;;;;;;;;13.57;100.00;100413.84;5038478;28;19940;-75
2022/12/31 09:14:49;;;;;;;;;;;;;;;13.54;100.00;100408.72;5035307;28;19967;-74
2022/12/31 09:17:29;;;;;;;;;;;;;;;13.53;100.00;100423.22;5037420;28;20254;-76
2022/12/31 09:19:54;;;;;;;;;;;;;;;13.49;100.00;100436.16;5046878;28;19916;-76
2022/12/31 09:22:20;;;;;;;;;;;;;;;13.44;100.00;100441.13;5038504;28;19909;-74
2022/12/31 09:24:45;;;;;;;;;;;;;;;13.40;100.00;100437.84;5047294;28;20380;-75
2022/12/31 09:27:36;;;;;;;;;;;;;;;13.36;100.00;100449.09;5043252;28;19963;-73
2022/12/31 09:30:11;;;;;;;;;;;;;;;13.33;100.00;100450.19;5037269;28;19920;-74
2022/12/31 09:32:46;;;;;;;;;;;;;;;13.31;100.00;100438.69;5038743;28;19924;-76
2022/12/31 09:35:24;;;;;;;;;;;;;;;13.29;100.00;100448.75;5043820;28;20372;-76
2022/12/31 09:37:52;;;;;;;;;;;;;;;13.26;100.00;100455.25;5050933;28;19939;-76
2022/12/31 09:40:29;;;;;;;;;;;;;;;13.24;100.00;100451.88;5053758;28;19920;-75
2022/12/31 09:43:09;;;;;;;;;;;;;;;13.24;100.00;100457.25;5043681;28;19917;-74
2022/12/31 09:45:41;;;;;;;;;;;;;;;13.24;100.00;100459.97;5037704;28;19917;-74
2022/12/31 09:48:06;;;;;;;;;;;;;;;13.25;100.00;100461.69;5039362;28;20287;-73
2022/12/31 09:50:52;;;;;;;;;;;;;;;13.26;100.00;100444.47;5054346;28;19916;-58
2022/12/31 09:53:37;;;;;;;;;;;;;;;13.29;100.00;100451.44;5042624;28;19912;-71
2022/12/31 09:56:02;;;;;;;;;;;;;;;13.34;100.00;100461.81;5041016;28;20441;-71
